Terminal Aerodrome Forecast
Issued by NWS

Home | Current Version | Previous Version | Text Only | Print | Product List | Glossary On
Versions: 1 2 3 4 5 6 7 8 9 10 11 12 13 14 15 16 17 18
822
FTUS46 KPDT 252320
TAFALW
TAF
KALW 252320Z 2600/2624 23006KT P6SM BKN060
     FM260300 18007KT P6SM BKN070 BKN200
     FM260800 18007KT P6SM BKN050
     FM261500 19008KT 6SM -SHSN OVC025
     FM261700 20008KT 1SM -SHSN BR OVC015
     FM262100 20008KT 3SM -SHSNRA BR OVC025=

USA.gov is the U.S. government's official web portal to all federal, state and local government web resources and services.